首页
METAR-TAF:

METAR-TAF

机场 :

朗蒙特, 科羅拉多州, 美国

纬度: 40-09-51N, 经度: 105-09-49W, 海拔: 1541米

当前天气观测

该预报发布于12分钟前的15:35 UTC
静风
温度 18°C
湿度 68%
气压 1020 hPa
能見度: 8.0公里
阴天层高于10000英尺

METAR: KLMO 181535Z AUTO 00000KT 5SM HZ OVC100 18/12 A3011 RMK AO2 T01840121

时间: 09:47 (15:47 UTC)


TAF: 丢失

超过4000个机场的气象观测和天气预报(METAR&TAF报告)。

可查询的气象台以黄色和红色小点在地图上表示。

将鼠标移到小点上方,可查看气象台名称。

然后点击查看天气观测和预报。

如需切换地图:点击带黑十字的绿色按钮放大地图;点击带横线的绿色按钮缩小地图;或者点击绿色箭头查看邻近地区的地图。


METAR-TAF: